createdAt,value
2023-03-17T00:00:48.961Z,100846.23
2023-03-17T00:03:26.123Z,100847.79
2023-03-17T00:05:55.822Z,100845.23
2023-03-17T00:08:27.998Z,100837.25
2023-03-17T00:10:56.734Z,100833.63
2023-03-17T00:13:26.273Z,100830.70
2023-03-17T00:15:59.455Z,100833.56
2023-03-17T00:18:30.612Z,100832.45
2023-03-17T00:20:58.937Z,100830.13
2023-03-17T00:23:27.321Z,100823.60
2023-03-17T00:25:57.435Z,100824.86
2023-03-17T00:28:27.396Z,100822.14
2023-03-17T00:30:57.237Z,100821.30
2023-03-17T00:33:28.816Z,100811.17
2023-03-17T00:35:57.773Z,100801.98
2023-03-17T00:38:26.116Z,100796.52
2023-03-17T00:40:54.965Z,100792.22
2023-03-17T00:43:23.154Z,100790.98
2023-03-17T00:45:51.346Z,100783.13
2023-03-17T00:48:21.642Z,100782.70
2023-03-17T00:50:51.398Z,100784.63
2023-03-17T00:53:22.317Z,100785.91
2023-03-17T00:55:50.450Z,100783.88
2023-03-17T00:58:25.757Z,100779.63
2023-03-17T01:00:55.317Z,100774.95
2023-03-17T01:03:24.036Z,100776.52
2023-03-17T01:05:54.403Z,100775.13
2023-03-17T01:08:23.740Z,100778.48
2023-03-17T01:10:52.489Z,100783.55
2023-03-17T01:13:20.764Z,100783.03
2023-03-17T01:15:50.739Z,100774.78
2023-03-17T01:18:23.062Z,100771.34
2023-03-17T01:20:51.797Z,100768.77
2023-03-17T01:23:20.004Z,100763.63
2023-03-17T01:25:49.306Z,100755.89
2023-03-17T01:28:19.676Z,100753.08
2023-03-17T01:30:47.818Z,100747.16
2023-03-17T01:33:16.273Z,100744.69
2023-03-17T01:35:46.033Z,100742.33
2023-03-17T01:38:15.273Z,100741.73
2023-03-17T01:40:49.879Z,100741.27
2023-03-17T01:43:28.372Z,100744.05
2023-03-17T01:46:25.576Z,100743.02
2023-03-17T01:49:09.575Z,100734.21
2023-03-17T01:51:47.739Z,100733.23
2023-03-17T01:54:42.754Z,100736.09
2023-03-17T01:57:19.109Z,100734.48
2023-03-17T01:59:52.172Z,100729.98
2023-03-17T02:02:31.667Z,100728.92
2023-03-17T02:05:00.243Z,100726.71
2023-03-17T02:07:28.741Z,100728.14
2023-03-17T02:09:58.323Z,100723.83
2023-03-17T02:12:29.412Z,100726.30
2023-03-17T02:14:58.569Z,100726.42
2023-03-17T02:17:28.474Z,100730.56
2023-03-17T02:19:56.660Z,100729.77
2023-03-17T02:22:25.390Z,100731.42
2023-03-17T02:24:57.141Z,100733.58
2023-03-17T02:27:37.189Z,100738.29
2023-03-17T02:30:07.021Z,100735.89
2023-03-17T02:32:39.365Z,100737.56
2023-03-17T02:35:08.601Z,100737.39
2023-03-17T02:37:36.822Z,100725.81
2023-03-17T02:40:06.513Z,100729.45
2023-03-17T02:42:35.849Z,100727.68
2023-03-17T02:45:04.345Z,100724.20
2023-03-17T02:47:32.956Z,100718.48
2023-03-17T02:50:01.388Z,100714.30
2023-03-17T02:52:29.634Z,100702.80
2023-03-17T02:54:58.449Z,100699.23
2023-03-17T02:57:27.390Z,100701.65
2023-03-17T02:59:55.558Z,100703.73
2023-03-17T03:02:23.588Z,100700.99
2023-03-17T03:04:51.699Z,100694.05
2023-03-17T03:07:19.830Z,100696.25
2023-03-17T03:09:47.944Z,100697.92
2023-03-17T03:12:16.067Z,100697.21
2023-03-17T03:14:44.167Z,100694.60
2023-03-17T03:17:12.428Z,100691.53
2023-03-17T03:19:40.892Z,100695.59
2023-03-17T03:22:09.081Z,100700.13
2023-03-17T03:24:37.142Z,100702.42
2023-03-17T03:27:05.317Z,100708.27
2023-03-17T03:29:33.910Z,100708.98
2023-03-17T03:32:02.225Z,100702.61
2023-03-17T03:34:30.851Z,100696.17
2023-03-17T03:36:58.994Z,100685.08
2023-03-17T03:39:27.083Z,100681.94
2023-03-17T03:41:58.598Z,100680.70
2023-03-17T03:44:26.773Z,100678.00
2023-03-17T03:46:54.852Z,100666.48
2023-03-17T03:49:23.252Z,100661.38
2023-03-17T03:51:51.410Z,100663.13
2023-03-17T03:54:19.505Z,100666.75
2023-03-17T03:56:47.578Z,100665.54
2023-03-17T03:59:16.403Z,100662.52
2023-03-17T04:01:44.691Z,100661.30
2023-03-17T04:04:12.933Z,100659.34
2023-03-17T04:06:41.035Z,100654.59
2023-03-17T04:09:09.516Z,100637.11
2023-03-17T04:11:38.220Z,100623.31
2023-03-17T04:14:06.670Z,100627.14
2023-03-17T04:16:34.720Z,100635.31
2023-03-17T04:19:03.633Z,100632.95
2023-03-17T04:21:32.105Z,100636.41
2023-03-17T04:24:00.273Z,100647.27
2023-03-17T04:26:28.538Z,100646.08
2023-03-17T04:28:56.782Z,100645.90
2023-03-17T04:31:25.012Z,100636.70
2023-03-17T04:33:53.786Z,100629.25
2023-03-17T04:36:24.075Z,100626.67
2023-03-17T04:38:52.303Z,100618.58
2023-03-17T04:41:21.600Z,100613.97
2023-03-17T04:43:49.937Z,100617.31
2023-03-17T04:46:18.289Z,100618.23
2023-03-17T04:48:46.619Z,100613.04
2023-03-17T04:51:14.896Z,100610.10
2023-03-17T04:53:43.333Z,100614.73
2023-03-17T04:56:12.213Z,100624.07
2023-03-17T04:58:40.771Z,100620.73
2023-03-17T05:01:09.142Z,100621.73
2023-03-17T05:03:37.512Z,100627.07
2023-03-17T05:06:07.263Z,100634.70
2023-03-17T05:08:35.677Z,100635.83
2023-03-17T05:11:03.980Z,100636.89
2023-03-17T05:13:32.451Z,100648.45
2023-03-17T05:16:01.697Z,100664.51
2023-03-17T05:18:30.463Z,100663.81
2023-03-17T05:20:58.780Z,100661.90
2023-03-17T05:23:27.197Z,100659.65
2023-03-17T05:25:55.443Z,100657.76
2023-03-17T05:28:23.769Z,100660.66
2023-03-17T05:30:52.309Z,100666.93
2023-03-17T05:33:21.883Z,100667.39
2023-03-17T05:35:50.514Z,100667.31
2023-03-17T05:38:19.006Z,100667.52
2023-03-17T05:40:50.433Z,100666.81
2023-03-17T05:43:19.251Z,100671.80
2023-03-17T05:45:50.217Z,100673.20
2023-03-17T05:48:18.975Z,100671.50
2023-03-17T05:50:47.569Z,100665.96
2023-03-17T05:53:16.355Z,100666.00
2023-03-17T05:55:45.380Z,100658.59
2023-03-17T05:58:15.962Z,100655.03
2023-03-17T06:00:44.623Z,100647.55
2023-03-17T06:03:13.161Z,100643.54
2023-03-17T06:05:41.428Z,100641.27
2023-03-17T06:08:10.493Z,100637.06
2023-03-17T06:10:38.733Z,100628.52
2023-03-17T06:13:07.069Z,100621.13
2023-03-17T06:15:37.226Z,100625.00
2023-03-17T06:18:06.106Z,100620.16
2023-03-17T06:20:35.069Z,100614.84
2023-03-17T06:23:05.468Z,100610.89
2023-03-17T06:25:35.686Z,100595.70
2023-03-17T06:28:06.669Z,100586.77
2023-03-17T06:30:40.016Z,100575.95
2023-03-17T06:33:09.321Z,100584.36
2023-03-17T06:35:38.497Z,100592.31
2023-03-17T06:38:06.848Z,100596.00
2023-03-17T06:40:35.778Z,100592.11
2023-03-17T06:43:04.160Z,100586.19
2023-03-17T06:45:35.822Z,100584.51
2023-03-17T06:48:04.238Z,100584.90
2023-03-17T06:50:32.584Z,100581.48
2023-03-17T06:53:01.243Z,100581.39
2023-03-17T06:55:29.991Z,100568.38
2023-03-17T06:57:59.236Z,100562.82
2023-03-17T07:00:27.933Z,100566.98
2023-03-17T07:02:56.999Z,100569.96
2023-03-17T07:05:25.332Z,100582.33
2023-03-17T07:07:53.588Z,100591.67
2023-03-17T07:10:23.405Z,100594.67
2023-03-17T07:12:51.869Z,100590.75
2023-03-17T07:15:21.058Z,100590.95
2023-03-17T07:17:50.037Z,100583.89
2023-03-17T07:20:18.401Z,100573.50
2023-03-17T07:22:46.707Z,100573.63
2023-03-17T07:25:15.637Z,100572.17
2023-03-17T07:27:43.819Z,100572.52
2023-03-17T07:30:15.190Z,100572.84
2023-03-17T07:32:43.957Z,100574.67
2023-03-17T07:35:12.332Z,100573.24
2023-03-17T07:37:40.960Z,100576.02
2023-03-17T07:40:11.152Z,100574.96
2023-03-17T07:42:39.370Z,100566.15
2023-03-17T07:45:08.231Z,100565.90
2023-03-17T07:47:36.599Z,100572.00
2023-03-17T07:50:06.114Z,100570.84
2023-03-17T07:52:34.827Z,100566.14
2023-03-17T07:55:03.187Z,100556.55
2023-03-17T07:57:32.036Z,100553.20
2023-03-17T08:00:00.646Z,100542.79
2023-03-17T08:02:30.282Z,100533.54
2023-03-17T08:04:58.588Z,100530.92
2023-03-17T08:07:27.016Z,100527.18
2023-03-17T08:09:56.264Z,100518.62
2023-03-17T08:12:25.813Z,100522.36
2023-03-17T08:14:55.657Z,100512.23
2023-03-17T08:17:27.413Z,100510.28
2023-03-17T08:19:56.324Z,100510.35
2023-03-17T08:22:25.180Z,100508.52
2023-03-17T08:24:53.803Z,100506.88
2023-03-17T08:27:22.498Z,100498.29
2023-03-17T08:29:51.454Z,100485.39
2023-03-17T08:32:19.774Z,100479.10
2023-03-17T08:34:48.878Z,100487.33
2023-03-17T08:37:17.363Z,100490.19
2023-03-17T08:39:45.580Z,100491.15
2023-03-17T08:42:13.803Z,100501.46
2023-03-17T08:44:44.002Z,100501.05
2023-03-17T08:47:12.541Z,100508.76
2023-03-17T08:49:41.697Z,100513.20
2023-03-17T08:52:10.151Z,100503.41
2023-03-17T08:54:38.490Z,100505.61
2023-03-17T08:57:06.860Z,100500.48
2023-03-17T08:59:35.193Z,100497.07
2023-03-17T09:02:03.529Z,100496.48
2023-03-17T09:04:32.704Z,100487.36
2023-03-17T09:07:03.992Z,100493.35
2023-03-17T09:09:39.041Z,100484.77
2023-03-17T09:12:07.676Z,100487.84
2023-03-17T09:14:43.516Z,100488.30
2023-03-17T09:17:14.700Z,100483.02
2023-03-17T09:19:43.919Z,100478.44
2023-03-17T09:22:14.675Z,100472.33
2023-03-17T09:24:43.018Z,100472.42
2023-03-17T09:27:11.351Z,100471.34
2023-03-17T09:29:40.012Z,100476.99
2023-03-17T09:32:08.994Z,100478.52
2023-03-17T09:34:37.568Z,100473.48
2023-03-17T09:37:05.893Z,100477.68
2023-03-17T09:39:34.315Z,100469.04
2023-03-17T09:42:21.584Z,100468.02
2023-03-17T09:44:53.718Z,100461.60
2023-03-17T09:47:34.493Z,100446.73
2023-03-17T09:50:10.895Z,100434.76
2023-03-17T09:52:39.181Z,100423.97
2023-03-17T09:55:13.265Z,100417.18
2023-03-17T09:57:42.789Z,100410.92
2023-03-17T10:00:19.309Z,100403.60
2023-03-17T10:02:47.662Z,100403.33
2023-03-17T10:05:21.930Z,100404.61
2023-03-17T10:08:26.932Z,100399.67
2023-03-17T10:11:16.465Z,100408.09
2023-03-17T10:13:55.591Z,100406.19
2023-03-17T10:16:41.795Z,100392.95
2023-03-17T10:19:13.030Z,100375.05
2023-03-17T10:21:50.274Z,100356.92
2023-03-17T10:24:19.510Z,100334.81
2023-03-17T10:26:51.820Z,100323.83
2023-03-17T10:29:22.891Z,100317.84
2023-03-17T10:31:56.386Z,100325.62
2023-03-17T10:34:32.869Z,100340.96
2023-03-17T10:37:07.409Z,100347.14
2023-03-17T10:39:54.812Z,100361.29
2023-03-17T10:42:32.573Z,100360.96
2023-03-17T10:45:07.736Z,100366.23
2023-03-17T10:47:50.299Z,100375.15
2023-03-17T10:50:29.240Z,100380.23
2023-03-17T10:53:03.710Z,100378.73
2023-03-17T10:55:42.818Z,100384.07
2023-03-17T10:58:14.435Z,100384.35
2023-03-17T11:00:57.515Z,100381.85
2023-03-17T11:03:30.314Z,100374.84
2023-03-17T11:06:10.524Z,100369.55
2023-03-17T11:08:49.965Z,100361.49
2023-03-17T11:11:30.282Z,100353.96
2023-03-17T11:14:27.438Z,100355.48
2023-03-17T11:16:59.562Z,100340.98
2023-03-17T11:19:37.056Z,100330.70
2023-03-17T11:22:14.497Z,100335.23
2023-03-17T11:25:00.953Z,100336.77
2023-03-17T11:27:40.765Z,100342.70
2023-03-17T11:30:16.878Z,100344.23
2023-03-17T11:33:09.316Z,100339.67
2023-03-17T11:35:58.214Z,100331.42
2023-03-17T11:38:31.116Z,100328.39
2023-03-17T11:41:27.409Z,100326.22
2023-03-17T11:44:12.729Z,100317.11
2023-03-17T11:47:05.434Z,100306.26
2023-03-17T11:49:39.039Z,100303.41
2023-03-17T11:52:07.405Z,100288.86
2023-03-17T11:54:38.892Z,100285.98
2023-03-17T11:57:17.708Z,100279.80
2023-03-17T12:00:05.641Z,100282.30
2023-03-17T12:02:47.813Z,100282.75
2023-03-17T12:05:22.052Z,100276.55
2023-03-17T12:07:55.809Z,100278.90
2023-03-17T12:10:31.490Z,100284.90
2023-03-17T12:13:07.354Z,100277.63
2023-03-17T12:15:43.778Z,100264.77
2023-03-17T12:18:38.869Z,100258.88
2023-03-17T12:21:41.508Z,100256.50
2023-03-17T12:24:17.403Z,100257.41
2023-03-17T12:26:48.735Z,100261.48
2023-03-17T12:29:41.106Z,100258.03
2023-03-17T12:32:26.683Z,100257.74
2023-03-17T12:34:58.435Z,100248.16
2023-03-17T12:37:28.497Z,100239.61
2023-03-17T12:40:16.517Z,100240.16
2023-03-17T12:43:03.039Z,100239.52
2023-03-17T12:45:46.309Z,100244.27
2023-03-17T12:48:33.896Z,100241.84
2023-03-17T12:51:21.361Z,100244.13
2023-03-17T12:53:51.730Z,100241.15
2023-03-17T12:56:26.580Z,100234.52
2023-03-17T12:59:03.850Z,100232.24
2023-03-17T13:01:43.435Z,100223.67
2023-03-17T13:04:37.553Z,100221.23
2023-03-17T13:07:17.396Z,100226.14
2023-03-17T13:10:09.744Z,100224.73
2023-03-17T13:12:41.772Z,100221.75
2023-03-17T13:15:48.440Z,100224.20
2023-03-17T13:18:16.784Z,100230.16
2023-03-17T13:21:08.195Z,100223.00
2023-03-17T13:23:44.297Z,100220.72
2023-03-17T13:26:22.414Z,100225.45
2023-03-17T13:28:51.920Z,100234.20
2023-03-17T13:31:32.205Z,100234.04
2023-03-17T13:34:13.252Z,100233.69
2023-03-17T13:37:23.167Z,100230.71
2023-03-17T13:40:00.233Z,100229.48
2023-03-17T13:42:55.644Z,100225.98
2023-03-17T13:45:39.245Z,100218.81
2023-03-17T13:48:29.456Z,100214.44
2023-03-17T13:51:09.933Z,100211.09
2023-03-17T13:53:49.032Z,100210.05
2023-03-17T13:56:46.958Z,100204.96
2023-03-17T13:59:17.136Z,100197.98
2023-03-17T14:01:57.881Z,100197.09
2023-03-17T14:04:31.028Z,100197.63
2023-03-17T14:07:09.304Z,100197.27
2023-03-17T14:09:39.919Z,100196.39
2023-03-17T14:12:34.325Z,100190.95
2023-03-17T14:15:20.324Z,100186.41
2023-03-17T14:17:54.124Z,100188.86
2023-03-17T14:20:27.650Z,100190.42
2023-03-17T14:23:05.648Z,100193.94
2023-03-17T14:25:36.462Z,100199.00
2023-03-17T14:28:10.633Z,100192.35
2023-03-17T14:30:39.808Z,100192.17
2023-03-17T14:33:27.306Z,100185.87
2023-03-17T14:36:02.308Z,100184.65
2023-03-17T14:38:33.929Z,100175.55
2023-03-17T14:41:23.295Z,100172.40
2023-03-17T14:43:54.544Z,100172.73
2023-03-17T14:46:27.638Z,100175.54
2023-03-17T14:49:17.691Z,100167.31
2023-03-17T14:51:49.336Z,100169.58
2023-03-17T14:54:24.908Z,100167.83
2023-03-17T14:57:05.378Z,100159.60
2023-03-17T14:59:55.401Z,100163.80
2023-03-17T15:02:28.751Z,100158.86
2023-03-17T15:05:29.621Z,100158.84
2023-03-17T15:07:58.036Z,100158.98
2023-03-17T15:10:34.460Z,100157.77
2023-03-17T15:13:06.495Z,100158.63
2023-03-17T15:15:37.538Z,100165.97
2023-03-17T15:18:15.953Z,100163.33
2023-03-17T15:20:45.181Z,100158.06
2023-03-17T15:23:25.120Z,100153.16
2023-03-17T15:25:56.816Z,100162.06
2023-03-17T15:28:29.039Z,100156.80
2023-03-17T15:31:11.492Z,100150.48
2023-03-17T15:33:42.288Z,100146.61
2023-03-17T15:36:31.413Z,100147.47
2023-03-17T15:39:05.491Z,100150.06
2023-03-17T15:41:33.817Z,100155.80
2023-03-17T15:44:04.921Z,100151.42
2023-03-17T15:46:33.890Z,100153.14
2023-03-17T15:49:02.153Z,100146.14
2023-03-17T15:51:30.700Z,100139.30
2023-03-17T15:53:59.122Z,100140.52
2023-03-17T15:56:27.333Z,100139.44
2023-03-17T15:58:55.637Z,100142.73
2023-03-17T16:01:27.299Z,100143.58
2023-03-17T16:03:56.355Z,100144.41
2023-03-17T16:06:24.735Z,100143.69
2023-03-17T16:08:53.412Z,100144.00
2023-03-17T16:11:28.564Z,100141.88
2023-03-17T16:13:59.276Z,100147.96
2023-03-17T16:16:37.885Z,100143.55
2023-03-17T16:19:10.529Z,100146.67
2023-03-17T16:21:38.965Z,100154.14
2023-03-17T16:24:10.345Z,100158.48
2023-03-17T16:26:38.629Z,100160.70
2023-03-17T16:29:13.522Z,100164.14
2023-03-17T16:31:44.230Z,100163.05
2023-03-17T16:34:21.649Z,100162.66
2023-03-17T16:36:51.555Z,100160.34
2023-03-17T16:39:22.786Z,100164.14
2023-03-17T16:41:51.119Z,100165.31
2023-03-17T16:44:21.389Z,100170.14
2023-03-17T16:46:49.687Z,100171.98
2023-03-17T16:49:20.773Z,100172.30
2023-03-17T16:51:50.528Z,100168.42
2023-03-17T16:54:19.308Z,100169.09
2023-03-17T16:56:47.834Z,100164.83
2023-03-17T16:59:24.089Z,100162.71
2023-03-17T17:01:55.152Z,100161.61
2023-03-17T17:04:24.639Z,100154.42
2023-03-17T17:06:53.017Z,100148.44
2023-03-17T17:09:21.648Z,100148.73
2023-03-17T17:11:50.053Z,100151.48
2023-03-17T17:14:18.596Z,100158.59
2023-03-17T17:16:47.088Z,100157.69
2023-03-17T17:19:17.517Z,100156.77
2023-03-17T17:21:45.900Z,100158.30
2023-03-17T17:24:14.512Z,100163.65
2023-03-17T17:26:43.014Z,100163.09
2023-03-17T17:29:13.261Z,100160.08
2023-03-17T17:31:41.980Z,100158.13
2023-03-17T17:34:10.642Z,100155.13
2023-03-17T17:36:39.872Z,100153.16
2023-03-17T17:39:11.019Z,100152.08
2023-03-17T17:41:39.423Z,100152.92
2023-03-17T17:44:07.800Z,100151.80
2023-03-17T17:46:36.325Z,100153.35
2023-03-17T17:49:05.396Z,100148.23
2023-03-17T17:51:33.724Z,100154.81
2023-03-17T17:54:02.605Z,100157.02
2023-03-17T17:56:36.745Z,100155.58
2023-03-17T17:59:05.004Z,100155.88
2023-03-17T18:01:33.504Z,100150.80
2023-03-17T18:04:01.743Z,100147.95
2023-03-17T18:06:30.029Z,100147.92
2023-03-17T18:08:59.532Z,100151.72
2023-03-17T18:11:28.382Z,100154.45
2023-03-17T18:13:56.844Z,100152.66
2023-03-17T18:16:25.641Z,100154.19
2023-03-17T18:18:55.066Z,100149.62
2023-03-17T18:21:23.868Z,100152.70
2023-03-17T18:23:55.354Z,100144.15
2023-03-17T18:26:23.761Z,100149.31
2023-03-17T18:28:52.894Z,100148.92
2023-03-17T18:31:26.944Z,100153.94
2023-03-17T18:34:11.742Z,100152.33
2023-03-17T18:36:40.769Z,100148.97
2023-03-17T18:39:09.074Z,100149.11
2023-03-17T18:41:38.230Z,100144.20
2023-03-17T18:44:07.765Z,100147.66
2023-03-17T18:46:37.464Z,100147.80
2023-03-17T18:49:07.452Z,100139.59
2023-03-17T18:51:35.890Z,100142.52
2023-03-17T18:54:05.792Z,100137.77
2023-03-17T18:56:33.906Z,100134.96
2023-03-17T18:59:02.186Z,100132.61
2023-03-17T19:01:30.441Z,100139.38
2023-03-17T19:03:58.690Z,100140.91
2023-03-17T19:06:27.142Z,100143.48
2023-03-17T19:08:56.516Z,100149.88
2023-03-17T19:11:26.388Z,100149.67
2023-03-17T19:13:54.635Z,100153.83
2023-03-17T19:16:29.139Z,100147.69
2023-03-17T19:18:59.300Z,100141.77
2023-03-17T19:21:28.845Z,100145.55
2023-03-17T19:24:00.814Z,100145.69
2023-03-17T19:26:31.012Z,100149.33
2023-03-17T19:28:59.352Z,100145.67
2023-03-17T19:31:27.570Z,100147.03
2023-03-17T19:33:56.098Z,100144.92
2023-03-17T19:36:24.949Z,100142.31
2023-03-17T19:38:53.141Z,100141.77
2023-03-17T19:41:21.405Z,100138.61
2023-03-17T19:43:49.898Z,100139.09
2023-03-17T19:46:18.274Z,100132.11
2023-03-17T19:48:46.552Z,100129.83
2023-03-17T19:51:15.088Z,100131.55
2023-03-17T19:53:43.267Z,100133.43
2023-03-17T19:56:11.597Z,100121.77
2023-03-17T19:58:40.077Z,100119.30
2023-03-17T20:01:08.708Z,100115.65
2023-03-17T20:03:42.475Z,100107.11
2023-03-17T20:06:13.403Z,100100.83
2023-03-17T20:08:43.292Z,100100.28
2023-03-17T20:11:12.950Z,100101.47
2023-03-17T20:13:41.483Z,100101.79
2023-03-17T20:16:09.933Z,100101.77
2023-03-17T20:18:38.371Z,100100.20
2023-03-17T20:21:12.977Z,100093.73
2023-03-17T20:23:41.504Z,100095.80
2023-03-17T20:26:09.841Z,100098.55
2023-03-17T20:28:38.985Z,100096.09
2023-03-17T20:31:08.362Z,100090.16
2023-03-17T20:33:36.944Z,100085.98
2023-03-17T20:36:05.796Z,100092.20
2023-03-17T20:38:37.094Z,100092.34
2023-03-17T20:41:11.963Z,100097.70
2023-03-17T20:43:41.988Z,100097.15
2023-03-17T20:46:14.830Z,100097.11
2023-03-17T20:48:44.530Z,100092.89
2023-03-17T20:51:16.643Z,100085.58
2023-03-17T20:53:47.012Z,100087.77
2023-03-17T20:56:22.417Z,100082.02
2023-03-17T20:58:53.465Z,100075.38
2023-03-17T21:01:22.692Z,100067.71
2023-03-17T21:03:52.724Z,100060.04
2023-03-17T21:06:22.161Z,100057.56
2023-03-17T21:08:52.135Z,100054.42
2023-03-17T21:11:23.237Z,100047.96
2023-03-17T21:13:52.207Z,100042.73
2023-03-17T21:16:24.878Z,100045.13
2023-03-17T21:18:53.781Z,100037.80
2023-03-17T21:21:22.794Z,100039.34
2023-03-17T21:23:51.503Z,100040.88
2023-03-17T21:26:20.320Z,100036.67
2023-03-17T21:28:48.891Z,100039.79
2023-03-17T21:31:17.555Z,100039.59
2023-03-17T21:33:50.703Z,100045.29
2023-03-17T21:36:21.145Z,100045.96
2023-03-17T21:38:49.653Z,100045.05
2023-03-17T21:41:23.895Z,100048.16
2023-03-17T21:43:52.198Z,100042.23
2023-03-17T21:46:20.510Z,100041.14
2023-03-17T21:48:49.144Z,100039.04
2023-03-17T21:51:17.594Z,100040.23
2023-03-17T21:53:47.067Z,100041.94
2023-03-17T21:56:15.504Z,100049.72
2023-03-17T21:58:43.829Z,100050.73
2023-03-17T22:01:12.481Z,100047.73
2023-03-17T22:03:42.462Z,100047.86
2023-03-17T22:06:11.592Z,100051.48
2023-03-17T22:08:40.085Z,100050.02
2023-03-17T22:11:10.729Z,100050.16
2023-03-17T22:13:39.709Z,100048.75
2023-03-17T22:16:10.371Z,100047.30
2023-03-17T22:18:38.965Z,100049.89
2023-03-17T22:21:08.478Z,100051.89
2023-03-17T22:23:41.810Z,100053.44
2023-03-17T22:26:19.228Z,100054.45
2023-03-17T22:28:50.466Z,100053.93
2023-03-17T22:31:22.801Z,100061.71
2023-03-17T22:33:55.381Z,100061.89
2023-03-17T22:36:30.192Z,100060.15
2023-03-17T22:38:59.730Z,100055.63
2023-03-17T22:41:30.617Z,100054.04
2023-03-17T22:43:58.942Z,100051.42
2023-03-17T22:46:28.091Z,100056.97
2023-03-17T22:48:57.568Z,100061.64
2023-03-17T22:51:27.134Z,100058.86
2023-03-17T22:53:55.986Z,100060.58
2023-03-17T22:56:26.248Z,100064.20
2023-03-17T22:58:55.477Z,100062.64
2023-03-17T23:01:26.197Z,100064.20
2023-03-17T23:03:55.629Z,100062.62
2023-03-17T23:06:24.874Z,100066.44
2023-03-17T23:08:53.177Z,100061.92
2023-03-17T23:11:24.920Z,100059.33
2023-03-17T23:13:54.401Z,100061.05
2023-03-17T23:16:23.079Z,100062.95
2023-03-17T23:18:51.783Z,100065.73
2023-03-17T23:21:28.686Z,100065.02
2023-03-17T23:23:57.105Z,100065.54
2023-03-17T23:26:25.954Z,100066.04
2023-03-17T23:28:54.269Z,100067.95
2023-03-17T23:31:23.205Z,100067.25
2023-03-17T23:33:51.740Z,100067.25
2023-03-17T23:36:20.100Z,100064.98
2023-03-17T23:38:49.003Z,100057.17
2023-03-17T23:41:17.880Z,100052.66
2023-03-17T23:43:47.103Z,100055.77
2023-03-17T23:46:15.549Z,100051.05
2023-03-17T23:48:44.768Z,100051.40
2023-03-17T23:51:13.136Z,100046.85
2023-03-17T23:53:42.075Z,100043.55
2023-03-17T23:56:11.632Z,100040.05
2023-03-17T23:58:43.728Z,100042.06
